Time;durP1;ratioP1;P1;durP2;ratioP2;P2;SDS_P1;SDS_P2;PMS_P1;PMS_P2;Temp;Humidity;BMP_temperature;BMP_pressure;BME280_temperature;BME280_humidity;BME280_pressure;Samples;Min_cycle;Max_cycle;Signal;HPM_P1;HPM_P2
2022/03/24 00:00:08;;;;;;;57.00;37.90;;;5.50;99.90;;;;;;6274371;22;20098;-79
2022/03/24 00:02:34;;;;;;;52.67;37.25;;;5.50;99.90;;;;;;6273560;22;20561;-77
2022/03/24 00:05:00;;;;;;;59.35;37.63;;;5.40;99.90;;;;;;6273745;22;20020;-76
2022/03/24 00:07:26;;;;;;;57.58;37.88;;;5.40;99.90;;;;;;6274107;22;20012;-77
2022/03/24 00:09:51;;;;;;;56.58;35.60;;;5.40;99.90;;;;;;6274028;22;20027;-82
2022/03/24 00:12:18;;;;;;;58.30;36.85;;;5.40;99.90;;;;;;6274392;22;20328;-80
2022/03/24 00:14:44;;;;;;;62.78;38.65;;;5.30;99.90;;;;;;6274163;22;20016;-77
2022/03/24 00:17:10;;;;;;;52.13;35.92;;;5.30;99.90;;;;;;6273594;22;20340;-77
2022/03/24 00:19:36;;;;;;;58.05;35.63;;;5.20;99.90;;;;;;6271676;22;20015;-77
2022/03/24 00:22:01;;;;;;;50.03;34.63;;;5.20;99.90;;;;;;6274211;22;20023;-77
2022/03/24 00:24:27;;;;;;;52.95;36.00;;;5.20;99.90;;;;;;6274325;22;20016;-77
2022/03/24 00:26:53;;;;;;;50.42;32.15;;;5.40;99.90;;;;;;6274295;22;20023;-78
2022/03/24 00:29:19;;;;;;;52.78;35.95;;;5.10;99.90;;;;;;6246309;22;20085;-76
2022/03/24 00:31:45;;;;;;;49.35;35.17;;;5.00;99.90;;;;;;6273673;22;20054;-77
2022/03/24 00:34:10;;;;;;;53.17;34.90;;;5.00;99.90;;;;;;6273772;22;20015;-77
2022/03/24 00:36:36;;;;;;;51.22;33.13;;;5.00;99.90;;;;;;6273298;22;20068;-76
2022/03/24 00:39:03;;;;;;;47.97;31.85;;;5.00;99.90;;;;;;6272002;22;20024;-79
2022/03/24 00:41:28;;;;;;;52.50;34.45;;;5.00;99.90;;;;;;6274053;22;20023;-76
2022/03/24 00:43:55;;;;;;;56.13;36.95;;;4.90;99.90;;;;;;6273997;22;20011;-77
2022/03/24 00:46:22;;;;;;;60.42;39.35;;;4.90;99.90;;;;;;6274140;22;20020;-78
2022/03/24 00:48:52;;;;;;;63.42;40.47;;;4.90;99.90;;;;;;6273462;22;20026;-80
2022/03/24 00:51:20;;;;;;;64.72;40.90;;;4.80;99.90;;;;;;6273994;22;20020;-77
2022/03/24 00:53:47;;;;;;;65.25;39.78;;;4.80;99.90;;;;;;6273587;22;20093;-79
2022/03/24 00:56:12;;;;;;;65.50;39.80;;;4.90;99.90;;;;;;6271870;22;20027;-77
2022/03/24 00:58:38;;;;;;;57.38;38.10;;;4.90;99.90;;;;;;6273685;22;20072;-78
2022/03/24 01:01:06;;;;;;;62.70;39.95;;;4.80;99.90;;;;;;6271541;22;20397;-77
2022/03/24 01:03:32;;;;;;;61.22;40.35;;;4.80;99.90;;;;;;6273182;22;20016;-77
2022/03/24 01:05:58;;;;;;;64.70;40.28;;;4.70;99.90;;;;;;6273285;22;20441;-77
2022/03/24 01:08:23;;;;;;;63.28;40.83;;;4.70;99.90;;;;;;6273412;22;20467;-78
2022/03/24 01:10:50;;;;;;;57.63;38.15;;;4.70;99.90;;;;;;6271916;22;20050;-78
2022/03/24 01:13:15;;;;;;;67.45;41.42;;;4.60;99.90;;;;;;6273848;22;20012;-76
2022/03/24 01:15:45;;;;;;;60.17;40.00;;;4.60;99.90;;;;;;6273421;22;20061;-76
2022/03/24 01:18:14;;;;;;;65.65;41.20;;;4.60;99.90;;;;;;6272567;22;20016;-76
2022/03/24 01:20:41;;;;;;;67.22;41.88;;;4.60;99.90;;;;;;6273416;22;20038;-78
2022/03/24 01:23:07;;;;;;;64.30;41.22;;;4.50;99.90;;;;;;6273612;22;20019;-76
2022/03/24 01:25:32;;;;;;;62.70;37.42;;;4.50;99.90;;;;;;6273395;22;20468;-79
2022/03/24 01:27:58;;;;;;;53.90;35.60;;;4.40;99.90;;;;;;6273818;22;20023;-77
2022/03/24 01:30:24;;;;;;;66.78;42.72;;;4.40;99.90;;;;;;6271016;22;20024;-76
2022/03/24 01:32:50;;;;;;;66.47;41.28;;;4.40;99.90;;;;;;6273081;22;20012;-79
2022/03/24 01:35:16;;;;;;;66.95;39.67;;;4.40;99.90;;;;;;6273168;22;20087;-76
2022/03/24 01:37:42;;;;;;;53.20;35.83;;;4.40;99.90;;;;;;6273528;22;20076;-75
2022/03/24 01:40:11;;;;;;;49.47;30.73;;;4.40;99.90;;;;;;6273403;22;20337;-77
2022/03/24 01:42:38;;;;;;;54.45;34.53;;;4.30;99.90;;;;;;6273073;22;20095;-77
2022/03/24 01:45:05;;;;;;;55.97;34.50;;;4.20;99.90;;;;;;6273296;22;20026;-75
2022/03/24 01:47:32;;;;;;;53.63;35.40;;;4.20;99.90;;;;;;6273111;22;20016;-75
2022/03/24 01:49:58;;;;;;;52.80;35.00;;;4.20;99.90;;;;;;6271218;22;20140;-78
2022/03/24 01:52:25;;;;;;;52.10;35.42;;;4.20;99.90;;;;;;6271513;22;20016;-76
2022/03/24 01:54:56;;;;;;;60.03;38.40;;;4.30;99.90;;;;;;6274084;22;20016;-76
2022/03/24 01:57:24;;;;;;;65.90;39.50;;;4.10;99.90;;;;;;6273582;22;20019;-76
2022/03/24 01:59:50;;;;;;;63.65;37.65;;;4.10;99.90;;;;;;6273588;22;20008;-75
2022/03/24 02:02:16;;;;;;;57.97;36.65;;;4.10;99.90;;;;;;6272810;22;20023;-76
2022/03/24 02:04:43;;;;;;;58.92;38.30;;;4.10;99.90;;;;;;6273017;22;20008;-75
2022/03/24 02:07:10;;;;;;;66.55;41.65;;;4.90;99.90;;;;;;6273199;22;20015;-76
2022/03/24 02:09:37;;;;;;;68.18;40.42;;;4.60;99.90;;;;;;6271518;22;20093;-75
2022/03/24 02:12:07;;;;;;;66.88;42.58;;;4.00;99.90;;;;;;6273072;22;20020;-75
2022/03/24 02:14:33;;;;;;;66.85;41.70;;;4.00;99.90;;;;;;6271447;22;20464;-76
2022/03/24 02:16:59;;;;;;;66.95;42.83;;;4.00;99.90;;;;;;6273376;22;20023;-75
2022/03/24 02:19:26;;;;;;;68.20;43.63;;;4.50;99.90;;;;;;6271567;22;20012;-76
2022/03/24 02:21:58;;;;;;;58.38;37.47;;;4.00;99.90;;;;;;6272885;22;20020;-78
2022/03/24 02:24:25;;;;;;;58.42;35.55;;;3.90;99.90;;;;;;6273223;22;20022;-76
2022/03/24 02:26:52;;;;;;;54.92;34.70;;;3.90;99.90;;;;;;6271589;22;20066;-76
2022/03/24 02:29:19;;;;;;;58.35;35.70;;;3.80;99.90;;;;;;6273201;22;20179;-76
2022/03/24 02:31:48;;;;;;;71.97;42.92;;;3.80;99.90;;;;;;6272930;22;20012;-75
2022/03/24 02:37:07;;;;;;;62.20;37.42;;;3.70;99.90;;;;;;6272683;22;20103;-75
2022/03/24 02:39:41;;;;;;;59.53;38.58;;;3.70;99.90;;;;;;6270905;22;20070;-75
2022/03/24 02:42:09;;;;;;;65.85;39.63;;;3.70;99.90;;;;;;6272992;22;20020;-75
2022/03/24 02:44:35;;;;;;;61.97;38.78;;;3.70;99.90;;;;;;6273095;22;20034;-75
2022/03/24 02:47:03;;;;;;;64.75;40.35;;;3.70;99.90;;;;;;6271079;22;20020;-75
2022/03/24 02:49:30;;;;;;;62.38;40.22;;;3.60;99.90;;;;;;6272909;22;20468;-75
2022/03/24 02:51:59;;;;;;;63.90;40.90;;;3.70;99.90;;;;;;6272851;22;20018;-75
2022/03/24 02:54:26;;;;;;;63.10;37.88;;;4.20;99.90;;;;;;6271008;22;20051;-79
2022/03/24 02:56:52;;;;;;;56.35;35.72;;;3.60;99.90;;;;;;6272915;22;20093;-75
2022/03/24 02:59:18;;;;;;;56.83;35.85;;;3.60;99.90;;;;;;6273356;22;20027;-75
2022/03/24 03:01:52;;;;;;;57.17;36.47;;;3.50;99.90;;;;;;6270457;22;20526;-75
2022/03/24 03:04:18;;;;;;;67.90;39.80;;;3.50;99.90;;;;;;6272948;22;20016;-75
2022/03/24 03:06:45;;;;;;;57.17;37.70;;;3.50;99.90;;;;;;6272239;22;20663;-74
2022/03/24 03:09:14;;;;;;;69.45;41.38;;;3.50;99.90;;;;;;6272459;22;20020;-75
2022/03/24 03:11:42;;;;;;;69.28;40.60;;;3.50;99.90;;;;;;6270386;22;20015;-75
2022/03/24 03:14:08;;;;;;;62.15;38.85;;;3.50;99.90;;;;;;6272802;22;20019;-75
2022/03/24 03:16:33;;;;;;;64.05;39.30;;;3.70;99.90;;;;;;6271637;22;20468;-77
2022/03/24 03:18:59;;;;;;;68.18;38.95;;;4.20;99.90;;;;;;6272306;22;20024;-76
2022/03/24 03:21:25;;;;;;;62.33;37.72;;;3.50;99.90;;;;;;6272693;22;20018;-76
2022/03/24 03:23:51;;;;;;;57.35;37.03;;;3.40;99.90;;;;;;6272508;22;20023;-76
2022/03/24 03:26:17;;;;;;;60.53;38.20;;;3.40;99.90;;;;;;6272216;22;20375;-75
2022/03/24 03:28:43;;;;;;;63.97;38.08;;;3.40;99.90;;;;;;6272792;22;20011;-77
2022/03/24 03:31:10;;;;;;;61.47;39.38;;;3.40;99.90;;;;;;6272616;22;20020;-77
2022/03/24 03:33:36;;;;;;;62.38;40.08;;;3.40;99.90;;;;;;6272243;22;20011;-76
2022/03/24 03:36:03;;;;;;;61.58;39.45;;;3.40;99.90;;;;;;6272694;22;20026;-75
2022/03/24 03:38:30;;;;;;;64.05;40.33;;;3.40;99.90;;;;;;6271554;22;20115;-75
2022/03/24 03:40:55;;;;;;;62.70;36.92;;;3.30;99.90;;;;;;6272248;22;20098;-77
2022/03/24 03:43:22;;;;;;;64.28;40.38;;;3.30;99.90;;;;;;6272443;22;20051;-76
2022/03/24 03:45:48;;;;;;;59.50;38.75;;;3.40;99.90;;;;;;6270887;22;20016;-77
2022/03/24 03:48:14;;;;;;;64.55;40.78;;;3.30;99.90;;;;;;6272926;22;20090;-76
2022/03/24 03:50:43;;;;;;;72.50;42.28;;;3.30;99.90;;;;;;6272738;22;20027;-77
2022/03/24 03:53:09;;;;;;;67.68;39.65;;;3.30;99.90;;;;;;6270577;22;20016;-76
2022/03/24 03:55:36;;;;;;;65.20;39.90;;;3.20;99.90;;;;;;6271901;22;20031;-76
2022/03/24 03:58:05;;;;;;;61.45;38.80;;;3.30;99.90;;;;;;6272756;22;20153;-76
2022/03/24 04:03:16;;;;;;;61.83;39.55;;;3.30;99.90;;;;;;6270628;22;20020;-75
2022/03/24 04:05:43;;;;;;;69.85;39.92;;;3.20;99.90;;;;;;6270306;22;20572;-75
2022/03/24 04:08:10;;;;;;;66.22;37.85;;;3.20;99.90;;;;;;6270324;22;20051;-75
2022/03/24 04:10:37;;;;;;;79.80;43.22;;;3.20;99.90;;;;;;6272034;22;20027;-76
2022/03/24 04:13:04;;;;;;;72.05;43.22;;;3.20;99.90;;;;;;6272175;22;20027;-76
2022/03/24 04:15:29;;;;;;;65.68;39.85;;;3.20;99.90;;;;;;6270369;22;20016;-76
2022/03/24 04:17:55;;;;;;;65.05;39.83;;;3.10;99.90;;;;;;6270207;22;20069;-80
2022/03/24 04:20:21;;;;;;;60.67;38.67;;;3.10;99.90;;;;;;6272259;22;20027;-75
2022/03/24 04:22:54;;;;;;;67.80;37.85;;;3.20;99.90;;;;;;6272144;22;20012;-76
2022/03/24 04:25:20;;;;;;;61.95;37.83;;;3.00;99.90;;;;;;6272041;22;20015;-76
2022/03/24 04:27:47;;;;;;;61.15;37.92;;;3.00;99.90;;;;;;6271804;22;20019;-78
2022/03/24 04:30:14;;;;;;;66.60;40.05;;;3.00;99.90;;;;;;6271644;22;20472;-76
2022/03/24 04:32:40;;;;;;;65.63;41.60;;;3.00;99.90;;;;;;6273555;22;20448;-76
2022/03/24 04:35:07;;;;;;;67.60;41.35;;;3.00;99.90;;;;;;6271981;22;20030;-75
2022/03/24 04:37:33;;;;;;;65.18;38.85;;;3.00;99.90;;;;;;6273529;22;20031;-77
2022/03/24 04:39:59;;;;;;;62.47;38.63;;;3.00;99.90;;;;;;6272240;22;20015;-76
2022/03/24 04:42:25;;;;;;;68.50;38.03;;;3.00;99.90;;;;;;6273512;22;20052;-75
2022/03/24 04:44:51;;;;;;;58.00;34.95;;;3.00;99.90;;;;;;6274392;22;20054;-77
2022/03/24 04:47:17;;;;;;;58.97;36.45;;;2.90;99.90;;;;;;6272035;22;20043;-76
2022/03/24 04:49:43;;;;;;;54.25;33.97;;;2.90;99.90;;;;;;6273696;22;20471;-77
2022/03/24 04:52:09;;;;;;;54.72;33.60;;;2.90;99.90;;;;;;6271427;22;20019;-75
2022/03/24 04:54:35;;;;;;;56.15;32.58;;;2.90;99.90;;;;;;6271820;22;20059;-75
2022/03/24 04:57:01;;;;;;;50.08;30.23;;;2.80;99.90;;;;;;6272925;22;20059;-76
2022/03/24 04:59:27;;;;;;;45.47;28.08;;;3.40;99.90;;;;;;6273702;22;20039;-76
2022/03/24 05:01:53;;;;;;;54.42;33.80;;;2.80;99.90;;;;;;6273700;22;20198;-78
2022/03/24 05:04:18;;;;;;;59.15;36.92;;;2.80;99.90;;;;;;6273196;22;20015;-75
2022/03/24 05:06:44;;;;;;;53.15;34.45;;;2.80;99.90;;;;;;6273772;22;20141;-75
2022/03/24 05:09:10;;;;;;;61.63;35.72;;;2.80;99.90;;;;;;6273544;22;20030;-75
2022/03/24 05:11:35;;;;;;;60.17;36.83;;;2.80;99.90;;;;;;6272929;22;20452;-75
2022/03/24 05:14:04;;;;;;;60.25;35.60;;;2.80;99.90;;;;;;6273534;22;20069;-75
2022/03/24 05:16:30;;;;;;;65.53;38.00;;;3.30;99.90;;;;;;6271549;22;20020;-74
2022/03/24 05:18:56;;;;;;;63.45;37.80;;;2.80;99.90;;;;;;6273909;22;20388;-75
2022/03/24 05:21:21;;;;;;;72.57;41.88;;;2.70;99.90;;;;;;6273483;22;20053;-74
2022/03/24 05:23:47;;;;;;;61.28;37.53;;;2.70;99.90;;;;;;6271736;22;20023;-75
2022/03/24 05:26:13;;;;;;;61.80;37.67;;;2.70;99.90;;;;;;6271493;22;20489;-79
2022/03/24 05:28:39;;;;;;;76.53;41.05;;;2.70;99.90;;;;;;6245479;22;20193;-76
2022/03/24 05:31:05;;;;;;;55.47;33.20;;;2.70;99.90;;;;;;6273771;22;20012;-75
2022/03/24 05:33:31;;;;;;;67.93;37.90;;;2.70;99.90;;;;;;6271598;22;20046;-75
2022/03/24 05:35:57;;;;;;;61.85;35.80;;;2.60;99.90;;;;;;6273211;22;20065;-77
2022/03/24 05:38:22;;;;;;;61.33;37.17;;;2.60;99.90;;;;;;6271545;22;20031;-75
2022/03/24 05:40:48;;;;;;;70.60;40.83;;;2.60;99.90;;;;;;6272195;22;20214;-75
2022/03/24 05:43:13;;;;;;;60.78;36.33;;;2.60;99.90;;;;;;6273009;22;20392;-74
2022/03/24 05:45:39;;;;;;;69.18;38.92;;;2.60;99.90;;;;;;6273101;22;20050;-77
2022/03/24 05:48:05;;;;;;;65.03;39.25;;;2.60;99.90;;;;;;6271237;22;20023;-75
2022/03/24 05:50:31;;;;;;;60.65;35.88;;;2.60;99.90;;;;;;6272829;22;20015;-74
2022/03/24 05:52:57;;;;;;;62.90;36.80;;;2.70;99.90;;;;;;6271325;22;20023;-77
2022/03/24 05:55:26;;;;;;;56.53;32.15;;;2.90;99.90;;;;;;6271325;22;20015;-77
2022/03/24 05:57:51;;;;;;;51.13;31.75;;;2.60;99.90;;;;;;6273228;22;20016;-74
2022/03/24 06:00:17;;;;;;;72.95;42.05;;;2.70;99.90;;;;;;6270676;22;20330;-79
2022/03/24 06:02:43;;;;;;;60.55;36.45;;;2.70;99.90;;;;;;6273175;22;20012;-76
2022/03/24 06:05:12;;;;;;;61.10;36.85;;;2.70;99.90;;;;;;6273403;22;20096;-75
2022/03/24 06:07:38;;;;;;;68.13;39.50;;;2.70;99.90;;;;;;6273011;22;20008;-75
2022/03/24 06:10:05;;;;;;;70.93;39.88;;;2.80;99.90;;;;;;6273195;22;20027;-75
2022/03/24 06:12:31;;;;;;;65.05;39.60;;;2.80;99.90;;;;;;6272810;22;20022;-76
2022/03/24 06:14:58;;;;;;;68.20;39.72;;;2.80;99.90;;;;;;6270996;22;20095;-77
2022/03/24 06:17:23;;;;;;;70.50;40.50;;;2.80;99.90;;;;;;6271407;22;20031;-75
2022/03/24 06:19:50;;;;;;;65.60;40.35;;;2.90;99.90;;;;;;6273279;22;20329;-75
2022/03/24 06:22:16;;;;;;;63.53;38.00;;;2.90;99.90;;;;;;6270746;22;20027;-78
2022/03/24 06:24:42;;;;;;;74.60;42.33;;;3.00;99.90;;;;;;6273020;22;20227;-76
2022/03/24 06:27:09;;;;;;;70.28;38.75;;;3.00;99.90;;;;;;6272507;22;20073;-78
2022/03/24 06:29:35;;;;;;;69.50;38.92;;;3.00;99.90;;;;;;6270780;22;20016;-76
2022/03/24 06:32:01;;;;;;;71.82;41.00;;;3.10;99.90;;;;;;6272169;22;20019;-75
2022/03/24 06:34:26;;;;;;;71.05;43.20;;;3.10;99.90;;;;;;6272798;22;20023;-75
2022/03/24 06:36:54;;;;;;;67.25;39.40;;;3.20;99.90;;;;;;6270847;22;20024;-75
2022/03/24 06:39:20;;;;;;;86.18;49.20;;;4.00;99.90;;;;;;6272886;22;20083;-75
2022/03/24 06:41:46;;;;;;;82.63;47.40;;;3.30;99.90;;;;;;6272526;22;20022;-76
2022/03/24 06:44:12;;;;;;;82.70;45.58;;;3.30;99.90;;;;;;6272675;22;20015;-75
2022/03/24 06:46:38;;;;;;;76.80;44.67;;;3.40;99.90;;;;;;6270217;22;20095;-74
2022/03/24 06:49:05;;;;;;;84.72;46.17;;;3.50;99.90;;;;;;6270967;22;20194;-74
2022/03/24 06:51:31;;;;;;;82.32;46.65;;;3.60;99.90;;;;;;6270527;22;20037;-74
2022/03/24 06:53:57;;;;;;;76.38;44.58;;;3.60;99.90;;;;;;6270772;22;20097;-75
2022/03/24 06:56:23;;;;;;;87.22;48.70;;;3.70;99.90;;;;;;6272434;22;20012;-74
2022/03/24 06:58:50;;;;;;;90.15;50.75;;;3.80;99.90;;;;;;6270723;22;20030;-74
2022/03/24 07:01:16;;;;;;;86.85;49.33;;;3.90;99.90;;;;;;6244181;22;20444;-75
2022/03/24 07:03:42;;;;;;;100.95;52.45;;;4.00;99.90;;;;;;6272720;22;20024;-74
2022/03/24 07:06:07;;;;;;;89.40;51.05;;;4.10;99.90;;;;;;6272089;22;20019;-75
2022/03/24 07:08:33;;;;;;;101.78;52.78;;;4.10;99.90;;;;;;6272369;22;20023;-75
2022/03/24 07:10:59;;;;;;;89.28;50.88;;;4.30;99.90;;;;;;6270164;22;20022;-76
2022/03/24 07:13:24;;;;;;;102.88;55.10;;;4.40;99.90;;;;;;6270764;22;20095;-76
2022/03/24 07:15:50;;;;;;;96.13;52.83;;;4.50;99.90;;;;;;6272427;22;20016;-76
2022/03/24 07:18:16;;;;;;;101.50;55.17;;;4.60;99.90;;;;;;6272074;22;20338;-76
2022/03/24 07:20:42;;;;;;;97.95;53.33;;;4.70;99.90;;;;;;6270471;22;20053;-76
2022/03/24 07:23:09;;;;;;;115.35;61.38;;;4.80;99.90;;;;;;6270796;22;20023;-77
2022/03/24 07:25:36;;;;;;;106.85;57.83;;;5.60;99.90;;;;;;6272535;22;20007;-76
2022/03/24 07:28:04;;;;;;;106.07;57.15;;;5.10;99.90;;;;;;6272701;22;20022;-76
2022/03/24 07:30:30;;;;;;;102.65;58.08;;;5.10;99.90;;;;;;6270746;22;20293;-76
2022/03/24 07:32:58;;;;;;;104.13;56.35;;;5.30;99.90;;;;;;6271990;22;20015;-76
2022/03/24 07:35:26;;;;;;;107.53;56.45;;;5.40;99.90;;;;;;6272355;22;20452;-79
2022/03/24 07:37:53;;;;;;;109.95;61.72;;;5.50;99.90;;;;;;6271730;22;20059;-76
2022/03/24 07:40:21;;;;;;;111.50;62.63;;;5.70;99.90;;;;;;6272178;22;20337;-77
2022/03/24 07:42:47;;;;;;;104.22;58.90;;;5.80;99.90;;;;;;6272123;22;20016;-79
2022/03/24 07:45:13;;;;;;;105.32;58.63;;;6.50;99.90;;;;;;6272765;22;20479;-75
2022/03/24 07:48:06;;;;;;;113.15;63.50;;;6.10;99.90;;;;;;6272343;22;20020;-79
2022/03/24 07:50:33;;;;;;;104.63;59.80;;;6.20;99.90;;;;;;6272926;22;20349;-76
2022/03/24 07:53:24;;;;;;;103.35;60.22;;;6.40;99.90;;;;;;6272459;22;20042;-78
2022/03/24 07:55:50;;;;;;;105.75;59.75;;;6.60;99.90;;;;;;6148707;23;20021;-78
2022/03/24 07:58:17;;;;;;;102.22;60.42;;;7.50;99.90;;;;;;6148629;23;20053;-76
2022/03/24 08:00:43;;;;;;;112.10;61.70;;;6.90;99.90;;;;;;6124554;23;20465;-76
2022/03/24 08:03:11;;;;;;;109.13;58.75;;;7.40;99.90;;;;;;6148453;23;20028;-77
2022/03/24 08:05:37;;;;;;;95.40;58.13;;;7.20;99.90;;;;;;6150417;23;20040;-76
2022/03/24 08:08:06;;;;;;;95.55;55.78;;;7.40;99.90;;;;;;6150633;23;20557;-77
2022/03/24 08:10:32;;;;;;;98.55;56.95;;;7.50;99.90;;;;;;6150760;23;20225;-76
2022/03/24 08:12:57;;;;;;;105.22;62.25;;;7.60;99.90;;;;;;6150391;23;20060;-76
2022/03/24 08:15:23;;;;;;;104.80;61.00;;;7.80;99.90;;;;;;6150519;23;20068;-76
2022/03/24 08:17:49;;;;;;;107.15;62.72;;;8.60;99.90;;;;;;6150682;23;20131;-76
2022/03/24 08:20:15;;;;;;;104.20;60.10;;;8.20;99.90;;;;;;6149818;23;20443;-77
2022/03/24 08:22:41;;;;;;;105.50;60.35;;;8.40;99.90;;;;;;6150391;23;20064;-76
2022/03/24 08:25:09;;;;;;;100.75;60.92;;;8.50;99.90;;;;;;6150597;23;20052;-76
2022/03/24 08:27:37;;;;;;;88.45;55.45;;;8.80;99.90;;;;;;6150731;23;20017;-77
2022/03/24 08:30:04;;;;;;;92.40;54.72;;;9.60;99.90;;;;;;6150551;23;20021;-75
2022/03/24 08:32:30;;;;;;;86.07;52.13;;;9.20;99.90;;;;;;6190443;22;20034;-75
2022/03/24 08:34:56;;;;;;;81.50;49.08;;;9.40;99.90;;;;;;6273919;22;20020;-76
2022/03/24 08:37:22;;;;;;;80.38;50.35;;;9.60;99.90;;;;;;6274448;22;20132;-76
2022/03/24 08:39:47;;;;;;;83.85;50.65;;;9.80;99.90;;;;;;6274009;22;20024;-77
2022/03/24 08:42:13;;;;;;;84.03;51.75;;;10.50;99.90;;;;;;6274070;22;20022;-76
2022/03/24 08:44:39;;;;;;;79.78;51.00;;;10.30;99.90;;;;;;6274022;22;20051;-76
2022/03/24 08:47:05;;;;;;;80.35;49.95;;;10.60;99.90;;;;;;6273517;22;20015;-76
2022/03/24 08:49:31;;;;;;;81.00;51.08;;;10.90;99.90;;;;;;6273799;22;20022;-78
2022/03/24 08:51:57;;;;;;;79.18;51.00;;;11.10;99.90;;;;;;6273972;22;20015;-77
2022/03/24 08:54:23;;;;;;;79.28;51.13;;;11.40;99.90;;;;;;6273717;22;20054;-77
2022/03/24 08:56:49;;;;;;;79.07;49.60;;;11.70;99.90;;;;;;6273386;22;20020;-77
2022/03/24 08:59:14;;;;;;;72.53;48.63;;;11.90;99.90;;;;;;6273348;22;20340;-77
2022/03/24 09:01:43;;;;;;;80.85;50.10;;;12.30;99.90;;;;;;6271695;22;20022;-75
2022/03/24 09:04:10;;;;;;;81.97;48.75;;;12.50;99.90;;;;;;6273890;22;20059;-76
2022/03/24 09:06:36;;;;;;;74.38;47.67;;;12.80;99.90;;;;;;6273242;22;20039;-75
2022/03/24 09:09:02;;;;;;;73.00;47.33;;;13.00;99.90;;;;;;6271765;22;20027;-75
2022/03/24 09:11:28;;;;;;;73.07;47.65;;;13.20;99.90;;;;;;6271994;22;20047;-75
2022/03/24 09:13:57;;;;;;;74.63;46.80;;;13.50;99.90;;;;;;6247095;22;20051;-76
2022/03/24 09:16:23;;;;;;;80.85;47.03;;;14.00;99.90;;;;;;6273838;22;20552;-76
2022/03/24 09:18:49;;;;;;;71.70;44.45;;;14.00;99.90;;;;;;6271926;22;20153;-81
2022/03/24 09:21:16;;;;;;;65.32;42.20;;;14.20;99.90;;;;;;6271321;22;20070;-77
2022/03/24 09:23:43;;;;;;;64.88;42.97;;;14.60;99.90;;;;;;6271795;22;20102;-80
2022/03/24 09:26:09;;;;;;;71.20;45.28;;;14.80;99.90;;;;;;6271567;22;20356;-78
2022/03/24 09:28:34;;;;;;;76.13;44.78;;;15.00;99.90;;;;;;6271526;22;20015;-77
2022/03/24 09:31:00;;;;;;;65.90;41.28;;;15.20;99.90;;;;;;6273136;22;20400;-81
2022/03/24 09:33:26;;;;;;;59.85;40.05;;;15.50;99.90;;;;;;6273381;22;20087;-79
2022/03/24 09:35:52;;;;;;;58.88;39.40;;;15.70;99.90;;;;;;6271746;22;20090;-78
2022/03/24 09:38:18;;;;;;;63.63;40.00;;;15.80;99.90;;;;;;6273199;22;20020;-79
2022/03/24 09:40:45;;;;;;;56.58;38.65;;;16.10;99.90;;;;;;6273577;22;20095;-78
2022/03/24 09:43:13;;;;;;;61.50;38.35;;;16.30;99.90;;;;;;6270733;22;20091;-78
2022/03/24 09:45:39;;;;;;;58.97;39.75;;;16.60;99.90;;;;;;6271558;22;20523;-77
2022/03/24 09:48:06;;;;;;;54.88;37.15;;;16.70;99.90;;;;;;6273235;22;20023;-80
2022/03/24 09:50:34;;;;;;;55.33;37.65;;;17.00;99.90;;;;;;6271659;22;20077;-78
2022/03/24 09:53:00;;;;;;;56.92;39.20;;;17.10;99.90;;;;;;6270600;22;20034;-78
2022/03/24 09:55:27;;;;;;;56.90;38.35;;;17.40;99.90;;;;;;6273270;22;20057;-78
2022/03/24 09:57:54;;;;;;;57.97;38.88;;;17.50;99.90;;;;;;6271016;22;20456;-78
2022/03/24 10:00:20;;;;;;;51.60;36.55;;;17.60;99.90;;;;;;6273453;22;20012;-78
2022/03/24 10:03:18;;;;;;;55.75;38.63;;;17.90;99.90;;;;;;6273275;22;20024;-78
2022/03/24 10:06:07;;;;;;;49.88;36.90;;;17.90;99.50;;;;;;6271343;22;20435;-79
2022/03/24 10:08:34;;;;;;;58.03;37.40;;;18.20;99.60;;;;;;6273007;22;20055;-80
2022/03/24 10:11:09;;;;;;;55.92;37.28;;;18.40;99.90;;;;;;6273588;22;20078;-82
2022/03/24 10:13:49;;;;;;;54.35;37.85;;;18.60;99.80;;;;;;6271446;22;20020;-80
2022/03/24 10:16:33;;;;;;;56.83;37.50;;;18.70;98.20;;;;;;6273455;22;20322;-79
2022/03/24 10:19:09;;;;;;;52.90;37.28;;;18.80;98.10;;;;;;6271381;22;20027;-80
2022/03/24 10:21:37;;;;;;;57.80;36.90;;;19.00;97.00;;;;;;6272938;22;20103;-80
2022/03/24 10:24:11;;;;;;;59.25;38.75;;;19.20;98.70;;;;;;6270794;22;20019;-80
2022/03/24 10:27:00;;;;;;;65.15;40.30;;;19.40;97.90;;;;;;6273182;22;20016;-80
2022/03/24 10:29:28;;;;;;;52.67;36.63;;;19.70;97.50;;;;;;6272022;22;20020;-81
2022/03/24 10:31:57;;;;;;;55.80;38.13;;;19.80;98.10;;;;;;6273059;22;20193;-80
2022/03/24 10:34:31;;;;;;;56.88;37.60;;;19.80;95.90;;;;;;6273131;22;20019;-79
2022/03/24 10:37:01;;;;;;;54.45;38.17;;;19.80;95.90;;;;;;6272934;22;20094;-79
2022/03/24 10:39:26;;;;;;;50.97;36.40;;;19.90;96.60;;;;;;6272266;22;20027;-80
2022/03/24 10:41:53;;;;;;;51.92;36.03;;;19.80;95.30;;;;;;6273070;22;20020;-80
2022/03/24 10:44:19;;;;;;;49.85;37.08;;;20.20;96.10;;;;;;6273014;22;20051;-81
2022/03/24 10:46:45;;;;;;;51.67;35.97;;;20.10;95.40;;;;;;6272380;22;20445;-83
2022/03/24 10:49:20;;;;;;;51.35;37.80;;;20.20;95.30;;;;;;6270969;22;20095;-82
2022/03/24 10:51:48;;;;;;;57.53;35.47;;;20.50;94.90;;;;;;6272795;22;20099;-84
2022/03/24 10:54:22;;;;;;;52.88;34.70;;;20.70;94.90;;;;;;6270544;22;20020;-84
2022/03/24 10:57:06;;;;;;;49.10;34.45;;;20.50;92.30;;;;;;6272449;22;20436;-86
2022/03/24 10:59:37;;;;;;;47.22;32.75;;;20.70;92.40;;;;;;6273228;22;20027;-86
2022/03/24 11:02:04;;;;;;;48.80;32.47;;;20.70;92.40;;;;;;6272780;22;20019;-85
2022/03/24 11:04:30;;;;;;;51.63;33.50;;;20.90;92.50;;;;;;6272689;22;20033;-86
2022/03/24 11:06:56;;;;;;;50.70;31.60;;;21.10;92.50;;;;;;6272744;22;20030;-83
2022/03/24 11:09:29;;;;;;;45.72;32.78;;;21.20;92.00;;;;;;6270666;22;20453;-84
2022/03/24 11:12:25;;;;;;;40.97;32.08;;;21.30;88.90;;;;;;6272125;22;20451;-82
2022/03/24 11:14:54;;;;;;;42.55;29.98;;;21.30;88.90;;;;;;6272541;22;20023;-82
2022/03/24 11:17:23;;;;;;;45.17;31.85;;;21.30;88.90;;;;;;6272461;22;20015;-82
2022/03/24 11:20:00;;;;;;;43.95;32.30;;;21.10;88.30;;;;;;6272802;22;20041;-83
2022/03/24 11:22:54;;;;;;;44.15;31.27;;;21.30;85.90;;;;;;6272452;22;20019;-82
2022/03/24 11:25:22;;;;;;;40.78;30.13;;;21.60;87.70;;;;;;6272453;22;20193;-84
2022/03/24 11:27:48;;;;;;;45.58;31.67;;;21.70;85.90;;;;;;6272578;22;20008;-81
2022/03/24 11:30:15;;;;;;;41.58;30.45;;;21.70;86.30;;;;;;6270784;22;20027;-83
2022/03/24 11:32:44;;;;;;;45.97;30.75;;;21.80;85.20;;;;;;6272524;22;20096;-82
2022/03/24 11:35:11;;;;;;;45.65;30.92;;;21.90;86.20;;;;;;6273053;22;20026;-81
2022/03/24 11:37:38;;;;;;;44.88;30.05;;;22.00;85.60;;;;;;6272005;22;20015;-81
2022/03/24 11:40:31;;;;;;;51.75;34.05;;;22.20;84.80;;;;;;6272428;22;20012;-83
2022/03/24 11:43:03;;;;;;;53.40;32.22;;;21.90;82.30;;;;;;6266092;22;20095;-81
2022/03/24 11:45:39;;;;;;;49.30;32.00;;;21.90;82.10;;;;;;6272405;22;20050;-81
2022/03/24 11:48:07;;;;;;;40.28;30.08;;;22.00;82.40;;;;;;6272514;22;20075;-82
2022/03/24 11:50:47;;;;;;;43.92;31.65;;;22.10;80.40;;;;;;6272221;22;20090;-82
2022/03/24 11:53:25;;;;;;;45.92;31.20;;;21.90;80.60;;;;;;6270425;22;20094;-82
2022/03/24 11:56:03;;;;;;;42.58;31.17;;;22.00;78.80;;;;;;6272457;22;20012;-82
2022/03/24 11:58:34;;;;;;;43.90;31.60;;;22.00;78.60;;;;;;6270226;22;20349;-82
2022/03/24 12:01:23;;;;;;;46.55;33.20;;;22.30;79.60;;;;;;6272297;22;20344;-82
2022/03/24 12:04:04;;;;;;;50.67;32.80;;;22.40;76.80;;;;;;6272303;22;20051;-81
2022/03/24 12:06:58;;;;;;;46.65;33.28;;;22.20;77.60;;;;;;6272621;22;20024;-82
2022/03/24 12:09:26;;;;;;;54.20;33.33;;;22.30;77.00;;;;;;6267633;22;20016;-81
2022/03/24 12:12:06;;;;;;;49.42;33.33;;;22.10;77.50;;;;;;6272078;22;20020;-81
2022/03/24 12:14:32;;;;;;;43.65;31.35;;;22.20;74.80;;;;;;6272546;22;20019;-81
2022/03/24 12:17:14;;;;;;;40.40;31.70;;;22.50;78.40;;;;;;6272017;22;20019;-80
2022/03/24 12:19:49;;;;;;;43.10;33.22;;;22.50;76.30;;;;;;6272339;22;20379;-81
2022/03/24 12:22:30;;;;;;;41.67;33.75;;;22.50;77.00;;;;;;6272247;22;20338;-80
2022/03/24 12:24:59;;;;;;;43.75;33.30;;;22.60;76.90;;;;;;6269371;22;20070;-81
2022/03/24 12:27:25;;;;;;;44.22;30.90;;;22.90;75.60;;;;;;6271879;22;20043;-81
2022/03/24 12:30:11;;;;;;;38.92;29.73;;;22.90;75.60;;;;;;6272251;22;20023;-78
2022/03/24 12:32:37;;;;;;;42.70;31.05;;;22.90;73.80;;;;;;6271705;22;20066;-78
2022/03/24 12:35:05;;;;;;;42.15;30.42;;;22.90;74.00;;;;;;6272369;22;20353;-79
2022/03/24 12:37:34;;;;;;;39.88;30.33;;;23.00;71.50;;;;;;6272265;22;20019;-80
2022/03/24 12:40:05;;;;;;;43.13;29.67;;;23.00;73.00;;;;;;6269756;22;20016;-80
2022/03/24 12:42:48;;;;;;;45.03;30.45;;;23.00;71.90;;;;;;6272253;22;20016;-80